sensor_id;sensor_type;location;lat;lon;timestamp;pressure;altitude;pressure_sealevel;temperature;humidity
60015;BME280;45867;52.480;6.056;2024-03-08T00:01:02;100746.16;;;1.08;100.00
60015;BME280;45867;52.480;6.056;2024-03-08T00:03:28;100751.97;;;1.10;100.00
60015;BME280;45867;52.480;6.056;2024-03-08T00:05:58;100737.56;;;1.01;100.00
60015;BME280;45867;52.480;6.056;2024-03-08T00:08:24;100739.72;;;1.11;100.00
60015;BME280;45867;52.480;6.056;2024-03-08T00:10:51;100743.34;;;1.10;100.00
60015;BME280;45867;52.480;6.056;2024-03-08T00:13:18;100716.88;;;1.00;100.00
60015;BME280;45867;52.480;6.056;2024-03-08T00:15:44;100720.53;;;0.85;100.00
60015;BME280;45867;52.480;6.056;2024-03-08T00:18:11;100732.72;;;1.05;100.00
60015;BME280;45867;52.480;6.056;2024-03-08T00:20:38;100721.69;;;1.09;100.00
60015;BME280;45867;52.480;6.056;2024-03-08T00:23:07;100712.03;;;1.03;100.00
60015;BME280;45867;52.480;6.056;2024-03-08T00:25:33;100721.31;;;0.93;100.00
60015;BME280;45867;52.480;6.056;2024-03-08T00:28:00;100712.69;;;0.92;100.00
60015;BME280;45867;52.480;6.056;2024-03-08T00:30:27;100722.91;;;0.94;100.00
60015;BME280;45867;52.480;6.056;2024-03-08T00:32:53;100720.75;;;0.77;100.00
60015;BME280;45867;52.480;6.056;2024-03-08T00:35:20;100721.16;;;0.74;100.00
60015;BME280;45867;52.480;6.056;2024-03-08T00:37:46;100716.13;;;0.73;100.00
60015;BME280;45867;52.480;6.056;2024-03-08T00:40:16;100702.50;;;0.77;100.00
60015;BME280;45867;52.480;6.056;2024-03-08T00:42:43;100702.31;;;0.65;100.00
60015;BME280;45867;52.480;6.056;2024-03-08T00:45:12;100707.72;;;0.64;100.00
60015;BME280;45867;52.480;6.056;2024-03-08T00:47:39;100698.53;;;0.41;100.00
60015;BME280;45867;52.480;6.056;2024-03-08T00:50:06;100699.53;;;0.47;100.00
60015;BME280;45867;52.480;6.056;2024-03-08T00:52:33;100683.69;;;0.55;100.00
60015;BME280;45867;52.480;6.056;2024-03-08T00:54:59;100665.66;;;0.47;100.00
60015;BME280;45867;52.480;6.056;2024-03-08T00:57:26;100665.00;;;0.52;100.00
60015;BME280;45867;52.480;6.056;2024-03-08T00:59:52;100654.19;;;0.55;100.00
60015;BME280;45867;52.480;6.056;2024-03-08T01:02:22;100652.38;;;0.49;100.00
60015;BME280;45867;52.480;6.056;2024-03-08T01:04:48;100650.00;;;0.40;100.00
60015;BME280;45867;52.480;6.056;2024-03-08T01:07:15;100635.19;;;0.28;100.00
60015;BME280;45867;52.480;6.056;2024-03-08T01:09:42;100635.19;;;0.28;100.00
60015;BME280;45867;52.480;6.056;2024-03-08T01:12:09;100615.13;;;0.41;100.00
60015;BME280;45867;52.480;6.056;2024-03-08T01:14:35;100611.50;;;0.42;100.00
60015;BME280;45867;52.480;6.056;2024-03-08T01:17:02;100586.47;;;0.21;100.00
60015;BME280;45867;52.480;6.056;2024-03-08T01:19:31;100604.53;;;0.23;100.00
60015;BME280;45867;52.480;6.056;2024-03-08T01:22:00;100599.31;;;0.23;100.00
60015;BME280;45867;52.480;6.056;2024-03-08T01:24:27;100597.31;;;0.25;100.00
60015;BME280;45867;52.480;6.056;2024-03-08T01:26:53;100562.06;;;0.09;100.00
60015;BME280;45867;52.480;6.056;2024-03-08T01:29:20;100571.47;;;0.17;100.00
60015;BME280;45867;52.480;6.056;2024-03-08T01:31:47;100569.25;;;0.20;100.00
60015;BME280;45867;52.480;6.056;2024-03-08T01:34:15;100566.84;;;0.12;100.00
60015;BME280;45867;52.480;6.056;2024-03-08T01:36:45;100552.25;;;0.11;100.00
60015;BME280;45867;52.480;6.056;2024-03-08T01:39:14;100521.41;;;-0.05;100.00
60015;BME280;45867;52.480;6.056;2024-03-08T01:41:41;100550.81;;;0.15;100.00
60015;BME280;45867;52.480;6.056;2024-03-08T01:44:08;100537.22;;;0.07;100.00
60015;BME280;45867;52.480;6.056;2024-03-08T01:46:34;100538.59;;;0.03;100.00
60015;BME280;45867;52.480;6.056;2024-03-08T01:49:05;100535.59;;;-0.01;100.00
60015;BME280;45867;52.480;6.056;2024-03-08T01:51:34;100520.97;;;0.05;100.00
60015;BME280;45867;52.480;6.056;2024-03-08T01:54:02;100522.19;;;-0.11;100.00
60015;BME280;45867;52.480;6.056;2024-03-08T01:56:30;100515.38;;;-0.06;100.00
60015;BME280;45867;52.480;6.056;2024-03-08T01:58:58;100509.00;;;-0.16;100.00
60015;BME280;45867;52.480;6.056;2024-03-08T02:01:25;100505.59;;;-0.10;100.00
60015;BME280;45867;52.480;6.056;2024-03-08T02:03:52;100497.78;;;-0.10;100.00
60015;BME280;45867;52.480;6.056;2024-03-08T02:06:18;100495.97;;;-0.16;100.00
60015;BME280;45867;52.480;6.056;2024-03-08T02:08:45;100486.34;;;-0.09;100.00
60015;BME280;45867;52.480;6.056;2024-03-08T02:11:13;100489.72;;;-0.09;100.00
60015;BME280;45867;52.480;6.056;2024-03-08T02:13:40;100475.72;;;-0.08;100.00
60015;BME280;45867;52.480;6.056;2024-03-08T02:16:07;100477.31;;;-0.07;100.00
60015;BME280;45867;52.480;6.056;2024-03-08T02:18:33;100479.94;;;-0.13;100.00
60015;BME280;45867;52.480;6.056;2024-03-08T02:21:02;100477.94;;;-0.18;100.00
60015;BME280;45867;52.480;6.056;2024-03-08T02:23:29;100464.31;;;-0.20;100.00
60015;BME280;45867;52.480;6.056;2024-03-08T02:25:56;100484.97;;;-0.18;100.00
60015;BME280;45867;52.480;6.056;2024-03-08T02:28:24;100468.13;;;-0.23;100.00
60015;BME280;45867;52.480;6.056;2024-03-08T02:30:51;100469.34;;;-0.18;100.00
60015;BME280;45867;52.480;6.056;2024-03-08T02:33:18;100460.72;;;-0.19;100.00
60015;BME280;45867;52.480;6.056;2024-03-08T02:35:45;100456.34;;;-0.32;100.00
60015;BME280;45867;52.480;6.056;2024-03-08T02:38:14;100459.69;;;-0.11;100.00
60015;BME280;45867;52.480;6.056;2024-03-08T02:40:41;100441.50;;;-0.31;100.00
60015;BME280;45867;52.480;6.056;2024-03-08T02:43:07;100470.31;;;-0.13;100.00
60015;BME280;45867;52.480;6.056;2024-03-08T02:45:35;100479.16;;;-0.20;100.00
60015;BME280;45867;52.480;6.056;2024-03-08T02:48:05;100464.94;;;-0.31;100.00
60015;BME280;45867;52.480;6.056;2024-03-08T02:50:32;100475.75;;;-0.28;100.00
60015;BME280;45867;52.480;6.056;2024-03-08T02:52:59;100491.19;;;-0.26;100.00
60015;BME280;45867;52.480;6.056;2024-03-08T02:55:26;100485.16;;;-0.13;100.00
60015;BME280;45867;52.480;6.056;2024-03-08T02:57:53;100483.38;;;-0.26;100.00
60015;BME280;45867;52.480;6.056;2024-03-08T03:00:20;100485.56;;;-0.23;100.00
60015;BME280;45867;52.480;6.056;2024-03-08T03:02:47;100480.72;;;-0.06;100.00
60015;BME280;45867;52.480;6.056;2024-03-08T03:05:14;100493.38;;;-0.16;100.00
60015;BME280;45867;52.480;6.056;2024-03-08T03:07:40;100475.94;;;-0.23;100.00
60015;BME280;45867;52.480;6.056;2024-03-08T03:10:11;100495.97;;;-0.10;100.00
60015;BME280;45867;52.480;6.056;2024-03-08T03:12:37;100501.16;;;-0.10;100.00
60015;BME280;45867;52.480;6.056;2024-03-08T03:15:04;100498.16;;;-0.20;100.00
60015;BME280;45867;52.480;6.056;2024-03-08T03:17:31;100504.56;;;-0.09;100.00
60015;BME280;45867;52.480;6.056;2024-03-08T03:19:58;100490.56;;;-0.08;100.00
60015;BME280;45867;52.480;6.056;2024-03-08T03:22:24;100503.38;;;-0.13;100.00
60015;BME280;45867;52.480;6.056;2024-03-08T03:24:51;100488.56;;;-0.19;100.00
60015;BME280;45867;52.480;6.056;2024-03-08T03:27:17;100524.59;;;-0.10;100.00
60015;BME280;45867;52.480;6.056;2024-03-08T03:29:44;100524.59;;;-0.10;100.00
60015;BME280;45867;52.480;6.056;2024-03-08T03:32:11;100530.19;;;-0.06;100.00
60015;BME280;45867;52.480;6.056;2024-03-08T03:34:38;100529.84;;;-0.23;100.00
60015;BME280;45867;52.480;6.056;2024-03-08T03:37:05;100534.84;;;-0.08;100.00
60015;BME280;45867;52.480;6.056;2024-03-08T03:39:32;100530.22;;;-0.13;100.00
60015;BME280;45867;52.480;6.056;2024-03-08T03:41:58;100524.22;;;-0.13;100.00
60015;BME280;45867;52.480;6.056;2024-03-08T03:44:25;100546.84;;;-0.07;100.00
60015;BME280;45867;52.480;6.056;2024-03-08T03:46:52;100550.66;;;-0.10;100.00
60015;BME280;45867;52.480;6.056;2024-03-08T03:49:18;100527.25;;;-0.30;100.00
60015;BME280;45867;52.480;6.056;2024-03-08T03:51:51;100556.47;;;-0.08;100.00
60015;BME280;45867;52.480;6.056;2024-03-08T03:54:17;100560.88;;;-0.02;100.00
60015;BME280;45867;52.480;6.056;2024-03-08T03:56:44;100539.03;;;-0.20;100.00
60015;BME280;45867;52.480;6.056;2024-03-08T03:59:13;100552.84;;;-0.20;100.00
60015;BME280;45867;52.480;6.056;2024-03-08T04:01:42;100579.72;;;-0.13;100.00
60015;BME280;45867;52.480;6.056;2024-03-08T04:04:11;100548.66;;;-0.14;100.00
60015;BME280;45867;52.480;6.056;2024-03-08T04:06:38;100588.72;;;-0.09;100.00
60015;BME280;45867;52.480;6.056;2024-03-08T04:09:04;100583.50;;;-0.09;100.00
60015;BME280;45867;52.480;6.056;2024-03-08T04:11:31;100585.13;;;0.06;100.00
60015;BME280;45867;52.480;6.056;2024-03-08T04:13:58;100568.28;;;-0.05;100.00
60015;BME280;45867;52.480;6.056;2024-03-08T04:16:24;100595.13;;;0.02;100.00
60015;BME280;45867;52.480;6.056;2024-03-08T04:18:53;100590.72;;;0.09;100.00
60015;BME280;45867;52.480;6.056;2024-03-08T04:21:20;100600.53;;;-0.06;100.00
60015;BME280;45867;52.480;6.056;2024-03-08T04:23:46;100604.56;;;-0.10;100.00
60015;BME280;45867;52.480;6.056;2024-03-08T04:26:13;100619.56;;;0.01;100.00
60015;BME280;45867;52.480;6.056;2024-03-08T04:28:43;100617.78;;;-0.05;100.00
60015;BME280;45867;52.480;6.056;2024-03-08T04:31:09;100614.56;;;-0.01;100.00
60015;BME280;45867;52.480;6.056;2024-03-08T04:33:36;100625.81;;;0.00;100.00
60015;BME280;45867;52.480;6.056;2024-03-08T04:36:02;100638.00;;;-0.01;100.00
60015;BME280;45867;52.480;6.056;2024-03-08T04:38:29;100622.38;;;-0.07;100.00
60015;BME280;45867;52.480;6.056;2024-03-08T04:41:01;100649.03;;;0.02;100.00
60015;BME280;45867;52.480;6.056;2024-03-08T04:43:27;100657.63;;;0.02;100.00
60015;BME280;45867;52.480;6.056;2024-03-08T04:45:54;100643.00;;;-0.06;100.00
60015;BME280;45867;52.480;6.056;2024-03-08T04:48:21;100660.88;;;-0.03;100.00
60015;BME280;45867;52.480;6.056;2024-03-08T04:50:47;100668.06;;;-0.05;100.00
60015;BME280;45867;52.480;6.056;2024-03-08T04:53:14;100670.69;;;-0.05;100.00
60015;BME280;45867;52.480;6.056;2024-03-08T04:55:41;100678.09;;;-0.02;100.00
60015;BME280;45867;52.480;6.056;2024-03-08T04:58:07;100675.88;;;0.02;100.00
60015;BME280;45867;52.480;6.056;2024-03-08T05:00:37;100671.06;;;-0.21;100.00
60015;BME280;45867;52.480;6.056;2024-03-08T05:03:03;100676.28;;;-0.08;100.00
60015;BME280;45867;52.480;6.056;2024-03-08T05:05:31;100672.28;;;-0.10;100.00
60015;BME280;45867;52.480;6.056;2024-03-08T05:08:01;100685.50;;;0.02;100.00
60015;BME280;45867;52.480;6.056;2024-03-08T05:10:31;100676.69;;;-0.11;100.00
60015;BME280;45867;52.480;6.056;2024-03-08T05:12:58;100688.31;;;0.07;100.00
60015;BME280;45867;52.480;6.056;2024-03-08T05:15:24;100688.09;;;0.02;100.00
60015;BME280;45867;52.480;6.056;2024-03-08T05:17:51;100699.34;;;-0.05;100.00
60015;BME280;45867;52.480;6.056;2024-03-08T05:20:17;100690.31;;;-0.02;100.00
60015;BME280;45867;52.480;6.056;2024-03-08T05:22:49;100714.75;;;-0.10;100.00
60015;BME280;45867;52.480;6.056;2024-03-08T05:25:16;100709.31;;;-0.15;100.00
60015;BME280;45867;52.480;6.056;2024-03-08T05:27:43;100722.56;;;-0.03;100.00
60015;BME280;45867;52.480;6.056;2024-03-08T05:30:09;100736.19;;;-0.08;100.00
60015;BME280;45867;52.480;6.056;2024-03-08T05:32:36;100725.97;;;-0.16;100.00
60015;BME280;45867;52.480;6.056;2024-03-08T05:35:03;100750.63;;;-0.05;100.00
60015;BME280;45867;52.480;6.056;2024-03-08T05:37:30;100752.81;;;-0.09;100.00
60015;BME280;45867;52.480;6.056;2024-03-08T05:39:56;100748.03;;;-0.05;100.00
60015;BME280;45867;52.480;6.056;2024-03-08T05:42:23;100754.66;;;-0.03;100.00
60015;BME280;45867;52.480;6.056;2024-03-08T05:44:50;100761.63;;;-0.10;100.00
60015;BME280;45867;52.480;6.056;2024-03-08T05:47:16;100763.03;;;-0.07;100.00
60015;BME280;45867;52.480;6.056;2024-03-08T05:49:43;100740.19;;;-0.18;100.00
60015;BME280;45867;52.480;6.056;2024-03-08T05:52:09;100748.59;;;-0.16;100.00
60015;BME280;45867;52.480;6.056;2024-03-08T05:54:36;100775.28;;;-0.08;100.00
60015;BME280;45867;52.480;6.056;2024-03-08T05:57:02;100790.88;;;-0.14;100.00
60015;BME280;45867;52.480;6.056;2024-03-08T05:59:32;100795.50;;;-0.10;100.00
60015;BME280;45867;52.480;6.056;2024-03-08T06:02:01;100773.59;;;-0.22;100.00
60015;BME280;45867;52.480;6.056;2024-03-08T06:04:28;100792.31;;;-0.05;100.00
60015;BME280;45867;52.480;6.056;2024-03-08T06:06:57;100792.88;;;-0.10;100.00
60015;BME280;45867;52.480;6.056;2024-03-08T06:09:27;100802.69;;;-0.12;100.00
60015;BME280;45867;52.480;6.056;2024-03-08T06:11:53;100803.72;;;-0.06;100.00
60015;BME280;45867;52.480;6.056;2024-03-08T06:14:20;100780.78;;;-0.31;100.00
60015;BME280;45867;52.480;6.056;2024-03-08T06:16:47;100782.03;;;-0.27;100.00
60015;BME280;45867;52.480;6.056;2024-03-08T06:19:14;100772.00;;;-0.30;100.00
60015;BME280;45867;52.480;6.056;2024-03-08T06:21:40;100782.88;;;-0.06;100.00
60015;BME280;45867;52.480;6.056;2024-03-08T06:24:07;100754.78;;;-0.17;100.00
60015;BME280;45867;52.480;6.056;2024-03-08T06:26:36;100764.41;;;-0.11;100.00
60015;BME280;45867;52.480;6.056;2024-03-08T06:29:05;100775.50;;;-0.03;100.00
60015;BME280;45867;52.480;6.056;2024-03-08T06:31:36;100785.69;;;-0.01;100.00
60015;BME280;45867;52.480;6.056;2024-03-08T06:34:06;100794.91;;;-0.05;100.00
60015;BME280;45867;52.480;6.056;2024-03-08T06:36:33;100806.09;;;-0.11;100.00
60015;BME280;45867;52.480;6.056;2024-03-08T06:39:03;100801.53;;;-0.03;100.00
60015;BME280;45867;52.480;6.056;2024-03-08T06:41:29;100807.75;;;0.03;100.00
60015;BME280;45867;52.480;6.056;2024-03-08T06:43:56;100816.16;;;-0.02;100.00
60015;BME280;45867;52.480;6.056;2024-03-08T06:46:23;100791.72;;;0.06;100.00
60015;BME280;45867;52.480;6.056;2024-03-08T06:48:49;100785.25;;;-0.11;100.00
60015;BME280;45867;52.480;6.056;2024-03-08T06:51:17;100792.31;;;0.02;100.00
60015;BME280;45867;52.480;6.056;2024-03-08T06:53:44;100814.59;;;0.17;100.00
60015;BME280;45867;52.480;6.056;2024-03-08T06:56:11;100784.72;;;0.00;100.00
60015;BME280;45867;52.480;6.056;2024-03-08T06:58:38;100814.78;;;0.16;100.00
60015;BME280;45867;52.480;6.056;2024-03-08T07:01:04;100806.78;;;0.17;100.00
60015;BME280;45867;52.480;6.056;2024-03-08T07:03:31;100817.81;;;0.26;100.00
60015;BME280;45867;52.480;6.056;2024-03-08T07:05:59;100817.59;;;0.21;100.00
60015;BME280;45867;52.480;6.056;2024-03-08T07:08:26;100854.53;;;0.38;100.00
60015;BME280;45867;52.480;6.056;2024-03-08T07:10:56;100857.78;;;0.47;100.00
60015;BME280;45867;52.480;6.056;2024-03-08T07:13:22;100867.97;;;0.48;100.00
60015;BME280;45867;52.480;6.056;2024-03-08T07:15:49;100867.19;;;0.48;100.00
60015;BME280;45867;52.480;6.056;2024-03-08T07:18:15;100890.47;;;0.56;100.00
60015;BME280;45867;52.480;6.056;2024-03-08T07:20:42;100900.72;;;0.57;100.00
60015;BME280;45867;52.480;6.056;2024-03-08T07:23:09;100898.47;;;0.48;100.00
60015;BME280;45867;52.480;6.056;2024-03-08T07:25:35;100865.97;;;0.37;100.00
60015;BME280;45867;52.480;6.056;2024-03-08T07:28:02;100921.56;;;0.64;100.00
60015;BME280;45867;52.480;6.056;2024-03-08T07:30:29;100930.63;;;0.75;100.00
60015;BME280;45867;52.480;6.056;2024-03-08T07:32:56;100951.31;;;0.83;100.00
60015;BME280;45867;52.480;6.056;2024-03-08T07:35:22;100956.91;;;0.86;100.00
60015;BME280;45867;52.480;6.056;2024-03-08T07:37:49;100959.34;;;0.88;100.00
60015;BME280;45867;52.480;6.056;2024-03-08T07:40:15;100967.56;;;0.85;100.00
60015;BME280;45867;52.480;6.056;2024-03-08T07:42:44;100955.31;;;0.85;100.00
60015;BME280;45867;52.480;6.056;2024-03-08T07:45:13;100987.25;;;1.07;100.00
60015;BME280;45867;52.480;6.056;2024-03-08T07:47:40;100986.69;;;1.12;100.00
60015;BME280;45867;52.480;6.056;2024-03-08T07:50:07;101005.16;;;1.24;100.00
60015;BME280;45867;52.480;6.056;2024-03-08T07:52:36;101030.25;;;1.25;100.00
60015;BME280;45867;52.480;6.056;2024-03-08T07:55:03;101042.31;;;1.32;100.00
60015;BME280;45867;52.480;6.056;2024-03-08T07:57:32;101035.47;;;1.38;100.00
60015;BME280;45867;52.480;6.056;2024-03-08T07:59:59;101027.44;;;1.26;100.00
60015;BME280;45867;52.480;6.056;2024-03-08T08:02:26;101047.34;;;1.47;100.00
60015;BME280;45867;52.480;6.056;2024-03-08T08:04:54;101043.72;;;1.48;100.00
60015;BME280;45867;52.480;6.056;2024-03-08T08:07:21;101055.59;;;1.58;100.00
60015;BME280;45867;52.480;6.056;2024-03-08T08:09:52;101071.84;;;1.66;100.00
60015;BME280;45867;52.480;6.056;2024-03-08T08:12:18;101081.72;;;1.71;100.00
60015;BME280;45867;52.480;6.056;2024-03-08T08:14:45;101093.38;;;1.75;100.00
60015;BME280;45867;52.480;6.056;2024-03-08T08:17:13;101104.03;;;1.80;100.00
60015;BME280;45867;52.480;6.056;2024-03-08T08:19:42;101093.16;;;1.76;100.00
60015;BME280;45867;52.480;6.056;2024-03-08T08:22:09;101120.31;;;1.89;100.00
60015;BME280;45867;52.480;6.056;2024-03-08T08:24:36;101128.34;;;2.00;100.00
60015;BME280;45867;52.480;6.056;2024-03-08T08:27:03;101105.25;;;1.77;100.00
60015;BME280;45867;52.480;6.056;2024-03-08T08:29:30;101135.78;;;1.97;100.00
60015;BME280;45867;52.480;6.056;2024-03-08T08:31:58;101148.47;;;2.13;100.00
60015;BME280;45867;52.480;6.056;2024-03-08T08:34:29;101137.59;;;2.16;100.00
60015;BME280;45867;52.480;6.056;2024-03-08T08:36:59;101148.03;;;2.23;100.00
60015;BME280;45867;52.480;6.056;2024-03-08T08:39:30;101148.44;;;2.27;100.00
60015;BME280;45867;52.480;6.056;2024-03-08T08:41:56;101135.53;;;2.32;100.00
60015;BME280;45867;52.480;6.056;2024-03-08T08:44:24;101139.91;;;2.71;100.00
60015;BME280;45867;52.480;6.056;2024-03-08T08:46:51;101111.25;;;3.60;100.00
60015;BME280;45867;52.480;6.056;2024-03-08T08:49:22;101109.84;;;4.32;100.00
60015;BME280;45867;52.480;6.056;2024-03-08T08:51:51;101130.63;;;4.89;100.00
60015;BME280;45867;52.480;6.056;2024-03-08T08:54:20;101140.19;;;5.62;100.00
60015;BME280;45867;52.480;6.056;2024-03-08T08:56:47;101181.91;;;6.00;100.00
60015;BME280;45867;52.480;6.056;2024-03-08T08:59:14;101227.94;;;5.61;100.00
60015;BME280;45867;52.480;6.056;2024-03-08T09:01:41;101238.78;;;5.34;100.00
60015;BME280;45867;52.480;6.056;2024-03-08T09:04:10;101252.53;;;4.56;100.00
60015;BME280;45867;52.480;6.056;2024-03-08T09:06:43;101251.63;;;4.44;100.00
60015;BME280;45867;52.480;6.056;2024-03-08T09:09:12;101219.47;;;4.74;100.00
60015;BME280;45867;52.480;6.056;2024-03-08T09:11:39;101229.53;;;5.32;100.00
60015;BME280;45867;52.480;6.056;2024-03-08T09:14:07;101217.19;;;5.93;100.00
60015;BME280;45867;52.480;6.056;2024-03-08T09:16:34;101214.88;;;6.27;100.00
60015;BME280;45867;52.480;6.056;2024-03-08T09:19:02;101211.78;;;6.53;100.00
60015;BME280;45867;52.480;6.056;2024-03-08T09:21:28;101198.28;;;6.50;100.00
60015;BME280;45867;52.480;6.056;2024-03-08T09:23:56;101197.59;;;6.66;100.00
60015;BME280;45867;52.480;6.056;2024-03-08T09:26:23;101185.34;;;7.24;100.00
60015;BME280;45867;52.480;6.056;2024-03-08T09:28:55;101185.88;;;7.54;100.00
60015;BME280;45867;52.480;6.056;2024-03-08T09:31:22;101198.69;;;7.63;100.00
60015;BME280;45867;52.480;6.056;2024-03-08T09:33:48;101202.09;;;7.75;100.00
60015;BME280;45867;52.480;6.056;2024-03-08T09:36:15;101189.13;;;8.07;100.00
60015;BME280;45867;52.480;6.056;2024-03-08T09:38:42;101181.84;;;8.65;100.00
60015;BME280;45867;52.480;6.056;2024-03-08T09:41:09;101157.50;;;8.85;100.00
60015;BME280;45867;52.480;6.056;2024-03-08T09:43:36;101135.19;;;8.98;100.00
60015;BME280;45867;52.480;6.056;2024-03-08T09:46:04;101045.88;;;9.32;100.00
60015;BME280;45867;52.480;6.056;2024-03-08T09:48:30;100925.28;;;9.78;100.00
60015;BME280;45867;52.480;6.056;2024-03-08T09:50:57;100865.19;;;9.79;100.00
60015;BME280;45867;52.480;6.056;2024-03-08T09:53:27;100889.38;;;9.40;100.00
60015;BME280;45867;52.480;6.056;2024-03-08T09:55:54;100929.44;;;9.17;100.00
60015;BME280;45867;52.480;6.056;2024-03-08T09:58:21;100945.91;;;8.97;100.00
60015;BME280;45867;52.480;6.056;2024-03-08T10:00:52;100952.16;;;8.85;100.00
60015;BME280;45867;52.480;6.056;2024-03-08T10:03:19;100956.50;;;8.70;100.00
60015;BME280;45867;52.480;6.056;2024-03-08T10:05:46;100898.91;;;9.41;100.00
60015;BME280;45867;52.480;6.056;2024-03-08T10:08:12;100939.66;;;9.08;100.00
60015;BME280;45867;52.480;6.056;2024-03-08T10:10:42;100948.47;;;9.19;100.00
60015;BME280;45867;52.480;6.056;2024-03-08T10:13:12;100978.06;;;9.53;100.00
60015;BME280;45867;52.480;6.056;2024-03-08T10:15:40;100983.91;;;10.08;100.00
60015;BME280;45867;52.480;6.056;2024-03-08T10:18:07;101020.59;;;9.46;100.00
60015;BME280;45867;52.480;6.056;2024-03-08T10:20:34;100993.34;;;10.46;100.00
60015;BME280;45867;52.480;6.056;2024-03-08T10:23:04;100983.88;;;10.91;100.00
60015;BME280;45867;52.480;6.056;2024-03-08T10:25:37;101015.41;;;11.74;100.00
60015;BME280;45867;52.480;6.056;2024-03-08T10:28:05;101284.41;;;12.82;100.00
60015;BME280;45867;52.480;6.056;2024-03-08T10:30:35;101333.34;;;12.20;100.00
60015;BME280;45867;52.480;6.056;2024-03-08T10:33:02;101420.72;;;12.16;100.00
60015;BME280;45867;52.480;6.056;2024-03-08T10:35:28;101561.56;;;12.21;100.00
60015;BME280;45867;52.480;6.056;2024-03-08T10:37:56;101682.59;;;12.92;100.00
60015;BME280;45867;52.480;6.056;2024-03-08T10:40:24;101820.94;;;12.55;100.00
60015;BME280;45867;52.480;6.056;2024-03-08T10:42:58;101864.50;;;12.86;100.00
60015;BME280;45867;52.480;6.056;2024-03-08T10:45:42;101923.63;;;13.88;100.00
60015;BME280;45867;52.480;6.056;2024-03-08T10:48:29;102092.75;;;14.86;100.00
60015;BME280;45867;52.480;6.056;2024-03-08T10:50:57;102202.44;;;14.79;100.00
60015;BME280;45867;52.480;6.056;2024-03-08T10:53:27;102198.69;;;14.33;100.00
60015;BME280;45867;52.480;6.056;2024-03-08T10:55:56;102148.53;;;14.82;100.00
60015;BME280;45867;52.480;6.056;2024-03-08T10:58:24;102284.25;;;15.16;100.00
60015;BME280;45867;52.480;6.056;2024-03-08T11:00:54;102278.31;;;16.03;100.00
60015;BME280;45867;52.480;6.056;2024-03-08T11:06:08;102209.63;;;15.78;100.00
60015;BME280;45867;52.480;6.056;2024-03-08T11:08:37;102387.47;;;15.43;100.00
60015;BME280;45867;52.480;6.056;2024-03-08T11:11:26;102342.09;;;15.53;100.00
60015;BME280;45867;52.480;6.056;2024-03-08T11:13:58;102216.31;;;15.75;100.00
60015;BME280;45867;52.480;6.056;2024-03-08T11:18:58;102235.28;;;15.99;100.00
60015;BME280;45867;52.480;6.056;2024-03-08T11:21:25;102318.19;;;16.30;100.00
60015;BME280;45867;52.480;6.056;2024-03-08T11:24:07;102375.69;;;16.27;100.00
60015;BME280;45867;52.480;6.056;2024-03-08T11:26:35;102325.03;;;15.64;100.00
60015;BME280;45867;52.480;6.056;2024-03-08T11:32:18;102200.44;;;16.45;100.00
60015;BME280;45867;52.480;6.056;2024-03-08T11:34:49;102301.63;;;17.34;100.00
60015;BME280;45867;52.480;6.056;2024-03-08T11:37:20;102358.13;;;17.32;99.08
60015;BME280;45867;52.480;6.056;2024-03-08T11:39:52;102375.56;;;17.94;98.40
60015;BME280;45867;52.480;6.056;2024-03-08T11:42:19;102399.72;;;17.24;96.03
60015;BME280;45867;52.480;6.056;2024-03-08T11:44:46;102371.47;;;18.71;96.73
60015;BME280;45867;52.480;6.056;2024-03-08T11:47:15;102409.06;;;17.32;93.82
60015;BME280;45867;52.480;6.056;2024-03-08T11:49:42;102310.91;;;16.86;97.60
60015;BME280;45867;52.480;6.056;2024-03-08T11:52:12;102216.00;;;16.17;100.00
60015;BME280;45867;52.480;6.056;2024-03-08T11:54:40;102142.53;;;15.74;100.00
60015;BME280;45867;52.480;6.056;2024-03-08T11:57:07;102188.75;;;15.85;100.00
60015;BME280;45867;52.480;6.056;2024-03-08T11:59:34;102211.06;;;16.65;100.00
60015;BME280;45867;52.480;6.056;2024-03-08T12:02:04;102237.84;;;17.36;98.46
60015;BME280;45867;52.480;6.056;2024-03-08T12:04:32;102311.88;;;17.71;95.28
60015;BME280;45867;52.480;6.056;2024-03-08T12:07:02;102280.72;;;16.25;95.36
60015;BME280;45867;52.480;6.056;2024-03-08T12:09:29;102199.59;;;16.55;98.81
60015;BME280;45867;52.480;6.056;2024-03-08T12:11:58;102254.25;;;16.13;95.90
60015;BME280;45867;52.480;6.056;2024-03-08T12:14:25;102222.19;;;16.08;96.54
60015;BME280;45867;52.480;6.056;2024-03-08T12:16:52;102166.31;;;15.91;97.89
60015;BME280;45867;52.480;6.056;2024-03-08T12:19:18;102129.66;;;15.15;99.75
60015;BME280;45867;52.480;6.056;2024-03-08T12:21:45;102085.59;;;15.43;100.00
60015;BME280;45867;52.480;6.056;2024-03-08T12:24:15;102129.38;;;15.21;100.00
60015;BME280;45867;52.480;6.056;2024-03-08T12:26:42;102066.47;;;14.42;100.00
60015;BME280;45867;52.480;6.056;2024-03-08T12:29:21;102062.47;;;14.44;100.00
60015;BME280;45867;52.480;6.056;2024-03-08T12:31:59;102036.34;;;14.52;100.00
60015;BME280;45867;52.480;6.056;2024-03-08T12:34:27;102048.22;;;15.12;100.00
60015;BME280;45867;52.480;6.056;2024-03-08T12:36:54;102047.38;;;14.65;100.00
60015;BME280;45867;52.480;6.056;2024-03-08T12:39:22;101969.16;;;15.37;100.00
60015;BME280;45867;52.480;6.056;2024-03-08T12:41:49;102031.38;;;15.32;100.00
60015;BME280;45867;52.480;6.056;2024-03-08T12:44:15;101975.84;;;15.29;100.00
60015;BME280;45867;52.480;6.056;2024-03-08T12:46:44;102064.47;;;16.52;98.90
60015;BME280;45867;52.480;6.056;2024-03-08T12:49:11;102062.13;;;15.14;98.74
60015;BME280;45867;52.480;6.056;2024-03-08T12:51:38;101994.69;;;14.30;100.00
60015;BME280;45867;52.480;6.056;2024-03-08T12:54:08;101953.72;;;14.82;100.00
60015;BME280;45867;52.480;6.056;2024-03-08T12:56:36;101965.44;;;14.66;100.00